Time,TemperatureF,DewpointF,PressureIn,WindDirection,WindDirectionDegrees,WindSpeedMPH,WindSpeedGustMPH,Humidity,HourlyPrecipIn,Conditions,Clouds,dailyrainin,SoftwareType,DateUTC
2013-02-16 00:00:00,19.8,17.6,30.13,North,32767,-999.0,0.0,91,0.00,,,0.01,Wunderground v.1.15,2013-02-16 05:00:00,
2013-02-16 00:05:00,19.7,17.5,30.13,North,32767,-999.0,0.0,91,0.00,,,0.00,Wunderground v.1.15,2013-02-16 05:05:00,
2013-02-16 00:10:00,19.7,17.5,30.13,North,32767,-999.0,0.0,91,0.00,,,0.00,Wunderground v.1.15,2013-02-16 05:10:00,
2013-02-16 00:15:00,19.7,17.8,30.13,North,32767,-999.0,0.0,92,0.00,,,0.00,Wunderground v.1.15,2013-02-16 05:15:00,
2013-02-16 00:20:00,19.9,18.0,30.13,North,32767,-999.0,0.0,92,0.00,,,0.00,Wunderground v.1.15,2013-02-16 05:20:00,
2013-02-16 00:25:00,20.0,18.1,30.13,North,32767,-999.0,0.0,92,0.00,,,0.00,Wunderground v.1.15,2013-02-16 05:25:00,
2013-02-16 00:35:00,19.7,17.8,30.13,North,32767,-999.0,0.0,92,0.00,,,0.00,Wunderground v.1.15,2013-02-16 05:35:00,
2013-02-16 00:45:00,19.7,17.8,30.13,North,32767,-999.0,0.0,92,0.00,,,0.00,Wunderground v.1.15,2013-02-16 05:45:00,
2013-02-16 00:55:00,19.7,17.8,30.12,North,32767,-999.0,0.0,92,0.00,,,0.00,Wunderground v.1.15,2013-02-16 05:55:00,
2013-02-16 01:00:00,19.7,17.8,30.12,North,32767,-999.0,0.0,92,0.00,,,0.00,Wunderground v.1.15,2013-02-16 06:00:00,
2013-02-16 01:10:00,19.7,17.8,30.12,North,32767,-999.0,0.0,92,0.00,,,0.00,Wunderground v.1.15,2013-02-16 06:10:00,
2013-02-16 01:20:00,19.7,17.8,30.12,North,32767,-999.0,0.0,92,0.00,,,0.00,Wunderground v.1.15,2013-02-16 06:20:00,
2013-02-16 01:25:00,19.7,17.8,30.12,North,32767,-999.0,0.0,92,0.00,,,0.00,Wunderground v.1.15,2013-02-16 06:25:00,
2013-02-16 01:35:00,19.8,17.9,30.12,North,32767,-999.0,0.0,92,0.00,,,0.00,Wunderground v.1.15,2013-02-16 06:35:00,
2013-02-16 01:45:00,19.8,17.9,30.12,North,32767,-999.0,0.0,92,0.00,,,0.00,Wunderground v.1.15,2013-02-16 06:45:00,
2013-02-16 01:55:00,19.8,17.9,30.11,North,32767,-999.0,0.0,92,0.00,,,0.00,Wunderground v.1.15,2013-02-16 06:55:00,
2013-02-16 02:05:00,19.7,17.8,30.11,North,32767,-999.0,0.0,92,0.00,,,0.00,Wunderground v.1.15,2013-02-16 07:05:00,
2013-02-16 02:15:00,19.7,17.8,30.11,North,32767,-999.0,0.0,92,0.00,,,0.00,Wunderground v.1.15,2013-02-16 07:15:00,
2013-02-16 02:25:00,19.9,18.0,30.10,North,32767,-999.0,0.0,92,0.00,,,0.00,Wunderground v.1.15,2013-02-16 07:25:00,
2013-02-16 02:35:00,19.5,17.6,30.10,North,32767,-999.0,0.0,92,0.00,,,0.00,Wunderground v.1.15,2013-02-16 07:35:00,
2013-02-16 02:45:00,19.6,17.7,30.10,North,32767,-999.0,0.0,92,0.00,,,0.00,Wunderground v.1.15,2013-02-16 07:45:00,
2013-02-16 02:55:00,19.3,17.4,30.10,North,32767,-999.0,0.0,92,0.00,,,0.00,Wunderground v.1.15,2013-02-16 07:55:00,
2013-02-16 03:00:00,19.3,17.4,30.10,North,32767,-999.0,0.0,92,0.00,,,0.00,Wunderground v.1.15,2013-02-16 08:00:00,
2013-02-16 03:05:00,19.5,17.6,30.10,North,32767,-999.0,0.0,92,0.00,,,0.00,Wunderground v.1.15,2013-02-16 08:05:00,
2013-02-16 03:15:00,19.7,17.8,30.09,North,32767,-999.0,0.0,92,0.00,,,0.00,Wunderground v.1.15,2013-02-16 08:15:00,
2013-02-16 03:25:00,19.7,17.8,30.09,North,32767,-999.0,0.0,92,0.00,,,0.00,Wunderground v.1.15,2013-02-16 08:25:00,
2013-02-16 03:35:00,19.7,17.8,30.09,North,32767,-999.0,0.0,92,0.00,,,0.00,Wunderground v.1.15,2013-02-16 08:35:00,
2013-02-16 03:40:00,19.7,17.8,30.09,North,32767,-999.0,0.0,92,0.00,,,0.00,Wunderground v.1.15,2013-02-16 08:40:00,
2013-02-16 03:50:00,19.5,17.6,30.08,North,32767,-999.0,0.0,92,0.00,,,0.00,Wunderground v.1.15,2013-02-16 08:50:00,
2013-02-16 03:55:00,19.5,17.6,30.08,North,32767,-999.0,0.0,92,0.00,,,0.00,Wunderground v.1.15,2013-02-16 08:55:00,
2013-02-16 04:05:00,19.7,17.8,30.08,North,32767,-999.0,0.0,92,0.00,,,0.00,Wunderground v.1.15,2013-02-16 09:05:00,
2013-02-16 04:15:00,19.7,17.8,30.08,North,32767,-999.0,0.0,92,0.00,,,0.00,Wunderground v.1.15,2013-02-16 09:15:00,
2013-02-16 04:25:00,19.5,17.6,30.08,North,32767,-999.0,0.0,92,0.00,,,0.00,Wunderground v.1.15,2013-02-16 09:25:00,
2013-02-16 04:35:00,19.6,17.7,30.07,North,32767,-999.0,0.0,92,0.00,,,0.00,Wunderground v.1.15,2013-02-16 09:35:00,
2013-02-16 04:45:00,19.7,17.8,30.07,North,32767,-999.0,0.0,92,0.00,,,0.00,Wunderground v.1.15,2013-02-16 09:45:00,
2013-02-16 04:55:00,19.7,17.8,30.07,North,32767,-999.0,0.0,92,0.00,,,0.00,Wunderground v.1.15,2013-02-16 09:55:00,
2013-02-16 05:05:00,19.7,17.8,30.07,North,32767,-999.0,0.0,92,0.00,,,0.00,Wunderground v.1.15,2013-02-16 10:05:00,
2013-02-16 05:15:00,19.3,17.4,30.07,North,32767,-999.0,0.0,92,0.00,,,0.00,Wunderground v.1.15,2013-02-16 10:15:00,
2013-02-16 05:25:00,18.9,17.0,30.07,North,32767,-999.0,0.0,92,0.00,,,0.00,Wunderground v.1.15,2013-02-16 10:25:00,
2013-02-16 05:35:00,19.1,17.2,30.07,North,32767,-999.0,0.0,92,0.00,,,0.00,Wunderground v.1.15,2013-02-16 10:35:00,
2013-02-16 05:45:00,19.3,17.1,30.07,North,32767,-999.0,0.0,91,0.00,,,0.00,Wunderground v.1.15,2013-02-16 10:45:00,
2013-02-16 05:55:00,18.9,16.7,30.07,North,32767,-999.0,0.0,91,0.00,,,0.00,Wunderground v.1.15,2013-02-16 10:55:00,
2013-02-16 06:00:00,18.8,16.6,30.07,North,32767,-999.0,0.0,91,0.00,,,0.00,Wunderground v.1.15,2013-02-16 11:00:00,
2013-02-16 06:05:00,18.8,16.6,30.07,North,32767,-999.0,0.0,91,0.00,,,0.00,Wunderground v.1.15,2013-02-16 11:05:00,
2013-02-16 06:15:00,18.1,15.9,30.07,North,32767,-999.0,0.0,91,0.00,,,0.00,Wunderground v.1.15,2013-02-16 11:15:00,
2013-02-16 06:20:00,17.8,15.6,30.07,North,32767,-999.0,0.0,91,0.00,,,0.00,Wunderground v.1.15,2013-02-16 11:20:00,
2013-02-16 06:25:00,17.7,15.5,30.07,North,32767,-999.0,0.0,91,0.00,,,0.00,Wunderground v.1.15,2013-02-16 11:25:00,
2013-02-16 06:35:00,17.2,14.8,30.07,North,32767,-999.0,0.0,90,0.00,,,0.00,Wunderground v.1.15,2013-02-16 11:35:00,
2013-02-16 06:45:00,17.0,14.6,30.07,North,32767,-999.0,0.0,90,0.00,,,0.00,Wunderground v.1.15,2013-02-16 11:45:00,
2013-02-16 06:50:00,16.9,14.5,30.07,North,32767,-999.0,0.0,90,0.00,,,0.00,Wunderground v.1.15,2013-02-16 11:50:00,
2013-02-16 06:55:00,16.8,14.4,30.07,North,32767,-999.0,0.0,90,0.00,,,0.00,Wunderground v.1.15,2013-02-16 11:55:00,
2013-02-16 07:05:00,16.7,14.3,30.08,North,32767,-999.0,0.0,90,0.00,,,0.00,Wunderground v.1.15,2013-02-16 12:05:00,
2013-02-16 07:15:00,16.7,14.3,30.08,North,32767,-999.0,0.0,90,0.00,,,0.00,Wunderground v.1.15,2013-02-16 12:15:00,
2013-02-16 07:25:00,16.6,14.2,30.08,North,32767,-999.0,0.0,90,0.00,,,0.00,Wunderground v.1.15,2013-02-16 12:25:00,
2013-02-16 07:30:00,16.6,13.9,30.08,North,32767,-999.0,0.0,89,0.00,,,0.00,Wunderground v.1.15,2013-02-16 12:30:00,
2013-02-16 07:40:00,16.6,13.9,30.08,North,32767,-999.0,0.0,89,0.00,,,0.00,Wunderground v.1.15,2013-02-16 12:40:00,
2013-02-16 07:50:00,16.5,13.8,30.08,North,32767,-999.0,0.0,89,0.00,,,0.00,Wunderground v.1.15,2013-02-16 12:50:00,
2013-02-16 07:55:00,16.5,13.8,30.08,North,32767,-999.0,0.0,89,0.00,,,0.00,Wunderground v.1.15,2013-02-16 12:55:00,
2013-02-16 08:05:00,16.6,14.2,30.08,North,32767,-999.0,0.0,90,0.00,,,0.00,Wunderground v.1.15,2013-02-16 13:05:00,
2013-02-16 08:15:00,16.6,14.2,30.08,North,32767,-999.0,0.0,90,0.00,,,0.00,Wunderground v.1.15,2013-02-16 13:15:00,
2013-02-16 08:25:00,16.6,13.9,30.08,North,32767,-999.0,0.0,89,0.00,,,0.00,Wunderground v.1.15,2013-02-16 13:25:00,
2013-02-16 08:35:00,16.6,14.2,30.08,North,32767,-999.0,0.0,90,0.00,,,0.00,Wunderground v.1.15,2013-02-16 13:35:00,
2013-02-16 08:45:00,16.8,14.1,30.09,North,32767,-999.0,0.0,89,0.00,,,0.00,Wunderground v.1.15,2013-02-16 13:45:00,
2013-02-16 08:50:00,17.1,14.7,30.09,North,32767,-999.0,0.0,90,0.00,,,0.00,Wunderground v.1.15,2013-02-16 13:50:00,
2013-02-16 09:00:00,17.3,14.9,30.09,North,32767,-999.0,0.0,90,0.00,,,0.00,Wunderground v.1.15,2013-02-16 14:00:00,
2013-02-16 09:05:00,17.3,14.9,30.09,North,32767,-999.0,0.0,90,0.00,,,0.00,Wunderground v.1.15,2013-02-16 14:05:00,
2013-02-16 09:15:00,17.6,15.2,30.09,North,32767,-999.0,0.0,90,0.00,,,0.00,Wunderground v.1.15,2013-02-16 14:15:00,
2013-02-16 09:25:00,18.1,15.7,30.09,North,32767,-999.0,0.0,90,0.00,,,0.00,Wunderground v.1.15,2013-02-16 14:25:00,
2013-02-16 09:35:00,18.3,15.6,30.09,North,32767,-999.0,0.0,89,0.00,,,0.00,Wunderground v.1.15,2013-02-16 14:35:00,
2013-02-16 09:45:00,17.9,15.2,30.09,North,32767,-999.0,0.0,89,0.00,,,0.00,Wunderground v.1.15,2013-02-16 14:45:00,
2013-02-16 09:55:00,17.7,14.8,30.09,North,32767,-999.0,0.0,88,0.00,,,0.00,Wunderground v.1.15,2013-02-16 14:55:00,
2013-02-16 10:05:00,17.7,14.8,30.09,North,32767,-999.0,0.0,88,0.00,,,0.00,Wunderground v.1.15,2013-02-16 15:05:00,
2013-02-16 10:15:00,18.2,15.2,30.09,North,32767,-999.0,0.0,88,0.00,,,0.00,Wunderground v.1.15,2013-02-16 15:15:00,
2013-02-16 10:20:00,18.2,15.2,30.09,North,32767,-999.0,0.0,88,0.00,,,0.00,Wunderground v.1.15,2013-02-16 15:20:00,
2013-02-16 10:25:00,18.4,15.2,30.09,North,32767,-999.0,0.0,87,0.00,,,0.00,Wunderground v.1.15,2013-02-16 15:25:00,
2013-02-16 10:35:00,18.8,15.6,30.09,North,32767,-999.0,0.0,87,0.00,,,0.00,Wunderground v.1.15,2013-02-16 15:35:00,
2013-02-16 10:45:00,18.8,15.3,30.09,North,32767,-999.0,0.0,86,0.00,,,0.00,Wunderground v.1.15,2013-02-16 15:45:00,
2013-02-16 10:55:00,18.4,14.9,30.09,North,32767,-999.0,0.0,86,0.00,,,0.00,Wunderground v.1.15,2013-02-16 15:55:00,
2013-02-16 11:05:00,17.6,14.1,30.09,North,32767,-999.0,0.0,86,0.00,,,0.00,Wunderground v.1.15,2013-02-16 16:05:00,
2013-02-16 11:15:00,17.1,13.9,30.09,North,32767,-999.0,0.0,87,0.00,,,0.00,Wunderground v.1.15,2013-02-16 16:15:00,
2013-02-16 11:25:00,17.5,14.3,30.09,North,32767,-999.0,0.0,87,0.00,,,0.00,Wunderground v.1.15,2013-02-16 16:25:00,
2013-02-16 11:35:00,17.7,14.5,30.10,North,32767,-999.0,0.0,87,0.00,,,0.00,Wunderground v.1.15,2013-02-16 16:35:00,
2013-02-16 11:45:00,18.2,14.7,30.10,North,32767,-999.0,0.0,86,0.00,,,0.00,Wunderground v.1.15,2013-02-16 16:45:00,
2013-02-16 11:55:00,18.3,14.8,30.09,North,32767,-999.0,0.0,86,0.00,,,0.00,Wunderground v.1.15,2013-02-16 16:55:00,
2013-02-16 12:00:00,18.5,15.0,30.09,North,32767,-999.0,0.0,86,0.00,,,0.00,Wunderground v.1.15,2013-02-16 17:00:00,
2013-02-16 12:05:00,18.4,14.6,30.09,North,32767,-999.0,0.0,85,0.00,,,0.00,Wunderground v.1.15,2013-02-16 17:05:00,
2013-02-16 12:15:00,18.5,15.0,30.09,North,32767,-999.0,0.0,86,0.00,,,0.00,Wunderground v.1.15,2013-02-16 17:15:00,
2013-02-16 12:25:00,19.1,15.3,30.09,North,32767,-999.0,0.0,85,0.00,,,0.00,Wunderground v.1.15,2013-02-16 17:25:00,
2013-02-16 12:35:00,19.3,14.7,30.09,North,32767,-999.0,0.0,82,0.00,,,0.00,Wunderground v.1.15,2013-02-16 17:35:00,
2013-02-16 12:45:00,19.6,14.7,30.08,North,32767,-999.0,0.0,81,0.00,,,0.00,Wunderground v.1.15,2013-02-16 17:45:00,
2013-02-16 12:55:00,19.7,14.8,30.08,North,32767,-999.0,0.0,81,0.00,,,0.00,Wunderground v.1.15,2013-02-16 17:55:00,
2013-02-16 13:00:00,19.4,14.5,30.08,North,32767,-999.0,0.0,81,0.00,,,0.00,Wunderground v.1.15,2013-02-16 18:00:00,
2013-02-16 13:10:00,19.3,14.4,30.08,North,32767,-999.0,0.0,81,0.00,,,0.00,Wunderground v.1.15,2013-02-16 18:10:00,
2013-02-16 13:15:00,19.3,14.4,30.08,North,32767,-999.0,0.0,81,0.00,,,0.00,Wunderground v.1.15,2013-02-16 18:15:00,
2013-02-16 13:25:00,18.9,13.7,30.08,North,32767,-999.0,0.0,80,0.00,,,0.00,Wunderground v.1.15,2013-02-16 18:25:00,
2013-02-16 13:30:00,19.3,14.4,30.08,North,32767,-999.0,0.0,81,0.00,,,0.00,Wunderground v.1.15,2013-02-16 18:30:00,
2013-02-16 13:40:00,18.8,14.2,30.07,North,32767,-999.0,0.0,82,0.00,,,0.00,Wunderground v.1.15,2013-02-16 18:40:00,
2013-02-16 13:45:00,18.4,14.1,30.07,North,32767,-999.0,0.0,83,0.00,,,0.00,Wunderground v.1.15,2013-02-16 18:45:00,
2013-02-16 13:55:00,18.2,14.4,30.07,North,32767,-999.0,0.0,85,0.00,,,0.00,Wunderground v.1.15,2013-02-16 18:55:00,
2013-02-16 14:05:00,18.7,15.2,30.07,North,32767,-999.0,0.0,86,0.00,,,0.00,Wunderground v.1.15,2013-02-16 19:05:00,
2013-02-16 14:15:00,19.3,15.0,30.07,North,32767,-999.0,0.0,83,0.00,,,0.00,Wunderground v.1.15,2013-02-16 19:15:00,
2013-02-16 14:25:00,20.5,16.2,30.07,North,32767,-999.0,0.0,83,0.00,,,0.00,Wunderground v.1.15,2013-02-16 19:25:00,
2013-02-16 14:30:00,20.0,15.7,30.07,North,32767,-999.0,0.0,83,0.00,,,0.00,Wunderground v.1.15,2013-02-16 19:30:00,
2013-02-16 14:40:00,19.4,15.6,30.07,North,32767,-999.0,0.0,85,0.00,,,0.00,Wunderground v.1.15,2013-02-16 19:40:00,
2013-02-16 14:50:00,19.5,15.5,30.07,North,32767,-999.0,0.0,84,0.00,,,0.00,Wunderground v.1.15,2013-02-16 19:50:00,
2013-02-16 14:55:00,19.0,15.2,30.07,North,32767,-999.0,0.0,85,0.00,,,0.00,Wunderground v.1.15,2013-02-16 19:55:00,
2013-02-16 15:05:00,19.2,15.7,30.07,North,32767,-999.0,0.0,86,0.00,,,0.00,Wunderground v.1.15,2013-02-16 20:05:00,
2013-02-16 15:15:00,19.2,15.7,30.07,North,32767,-999.0,0.0,86,0.00,,,0.00,Wunderground v.1.15,2013-02-16 20:15:00,
2013-02-16 15:25:00,19.0,15.8,30.07,North,32767,-999.0,0.0,87,0.00,,,0.00,Wunderground v.1.15,2013-02-16 20:25:00,
2013-02-16 15:35:00,18.4,15.2,30.07,North,32767,-999.0,0.0,87,0.00,,,0.00,Wunderground v.1.15,2013-02-16 20:35:00,
2013-02-16 15:40:00,18.4,15.4,30.07,West,271,0.0,0.0,88,0.00,,,0.00,Wunderground v.1.15,2013-02-16 20:40:00,
2013-02-16 15:50:00,18.4,15.4,30.08,West,271,0.0,0.0,88,0.00,,,0.00,Wunderground v.1.15,2013-02-16 20:50:00,
2013-02-16 15:55:00,18.4,15.4,30.07,West,271,0.0,0.0,88,0.00,,,0.00,Wunderground v.1.15,2013-02-16 20:55:00,
2013-02-16 16:05:00,18.2,15.5,30.08,West,271,0.0,0.0,89,0.00,,,0.00,Wunderground v.1.15,2013-02-16 21:05:00,
2013-02-16 16:15:00,18.6,15.6,30.08,West,271,0.0,0.0,88,0.00,,,0.00,Wunderground v.1.15,2013-02-16 21:15:00,
2013-02-16 16:25:00,18.4,15.2,30.08,West,271,0.0,0.0,87,0.00,,,0.00,Wunderground v.1.15,2013-02-16 21:25:00,
2013-02-16 16:30:00,18.1,14.9,30.08,West,271,0.0,0.0,87,0.00,,,0.00,Wunderground v.1.15,2013-02-16 21:30:00,
2013-02-16 16:40:00,17.7,14.5,30.08,West,271,0.0,0.0,87,0.00,,,0.00,Wunderground v.1.15,2013-02-16 21:40:00,
2013-02-16 16:50:00,17.2,14.0,30.09,West,271,0.0,0.0,87,0.00,,,0.00,Wunderground v.1.15,2013-02-16 21:50:00,
2013-02-16 16:55:00,16.9,13.7,30.08,West,271,0.0,0.0,87,0.00,,,0.00,Wunderground v.1.15,2013-02-16 21:55:00,
2013-02-16 17:05:00,17.3,14.4,30.09,West,271,0.0,0.0,88,0.00,,,0.00,Wunderground v.1.15,2013-02-16 22:05:00,
2013-02-16 17:15:00,17.4,14.2,30.09,West,271,0.0,0.0,87,0.00,,,0.00,Wunderground v.1.15,2013-02-16 22:15:00,
2013-02-16 17:25:00,17.2,14.3,30.09,West,271,0.0,0.0,88,0.00,,,0.00,Wunderground v.1.15,2013-02-16 22:25:00,
2013-02-16 17:35:00,16.8,13.9,30.09,West,271,0.0,0.0,88,0.00,,,0.00,Wunderground v.1.15,2013-02-16 22:35:00,
2013-02-16 17:45:00,16.2,13.3,30.09,West,271,0.0,0.0,88,0.00,,,0.00,Wunderground v.1.15,2013-02-16 22:45:00,
2013-02-16 17:50:00,15.9,13.2,30.09,West,271,0.0,0.0,89,0.00,,,0.00,Wunderground v.1.15,2013-02-16 22:50:00,
2013-02-16 18:00:00,15.6,12.9,30.09,West,271,0.0,0.0,89,0.00,,,0.00,Wunderground v.1.15,2013-02-16 23:00:00,
2013-02-16 18:10:00,15.2,12.5,30.10,West,271,0.0,0.0,89,0.00,,,0.00,Wunderground v.1.15,2013-02-16 23:10:00,
2013-02-16 18:20:00,14.9,12.2,30.10,North,32767,-999.0,0.0,89,0.00,,,0.00,Wunderground v.1.15,2013-02-16 23:20:00,
2013-02-16 18:25:00,14.9,12.2,30.10,North,32767,-999.0,0.0,89,0.00,,,0.00,Wunderground v.1.15,2013-02-16 23:25:00,
2013-02-16 18:35:00,15.1,12.7,30.11,North,32767,-999.0,0.0,90,0.00,,,0.00,Wunderground v.1.15,2013-02-16 23:35:00,
2013-02-16 18:45:00,15.4,13.0,30.11,North,32767,-999.0,0.0,90,0.00,,,0.00,Wunderground v.1.15,2013-02-16 23:45:00,
2013-02-16 18:55:00,15.2,12.8,30.11,North,32767,-999.0,0.0,90,0.00,,,0.00,Wunderground v.1.15,2013-02-16 23:55:00,
2013-02-16 19:05:00,14.9,12.5,30.11,North,32767,-999.0,0.0,90,0.00,,,0.00,Wunderground v.1.15,2013-02-17 00:05:00,
2013-02-16 19:15:00,15.0,12.6,30.12,North,32767,-999.0,0.0,90,0.00,,,0.00,Wunderground v.1.15,2013-02-17 00:15:00,
2013-02-16 19:25:00,15.1,12.7,30.12,North,32767,-999.0,0.0,90,0.00,,,0.00,Wunderground v.1.15,2013-02-17 00:25:00,
2013-02-16 19:35:00,15.3,12.6,30.11,North,32767,-999.0,0.0,89,0.00,,,0.00,Wunderground v.1.15,2013-02-17 00:35:00,
2013-02-16 19:45:00,15.0,12.3,30.12,North,32767,-999.0,0.0,89,0.00,,,0.00,Wunderground v.1.15,2013-02-17 00:45:00,
2013-02-16 19:50:00,15.0,12.1,30.12,North,32767,-999.0,0.0,88,0.00,,,0.00,Wunderground v.1.15,2013-02-17 00:50:00,
2013-02-16 20:00:00,14.8,11.9,30.12,North,32767,-999.0,0.0,88,0.00,,,0.00,Wunderground v.1.15,2013-02-17 01:00:00,
2013-02-16 20:05:00,14.6,11.7,30.12,North,32767,-999.0,0.0,88,0.00,,,0.00,Wunderground v.1.15,2013-02-17 01:05:00,
2013-02-16 20:15:00,14.6,11.7,30.12,North,32767,-999.0,0.0,88,0.00,,,0.00,Wunderground v.1.15,2013-02-17 01:15:00,
2013-02-16 20:25:00,14.6,11.7,30.12,North,32767,-999.0,0.0,88,0.00,,,0.00,Wunderground v.1.15,2013-02-17 01:25:00,
2013-02-16 20:35:00,14.5,11.3,30.12,North,32767,-999.0,0.0,87,0.00,,,0.00,Wunderground v.1.15,2013-02-17 01:35:00,
2013-02-16 20:45:00,14.3,11.1,30.12,North,32767,-999.0,0.0,87,0.00,,,0.00,Wunderground v.1.15,2013-02-17 01:45:00,
2013-02-16 20:55:00,13.9,10.7,30.12,North,32767,-999.0,0.0,87,0.00,,,0.00,Wunderground v.1.15,2013-02-17 01:55:00,
2013-02-16 21:00:00,13.9,11.0,30.12,North,32767,-999.0,0.0,88,0.00,,,0.00,Wunderground v.1.15,2013-02-17 02:00:00,
2013-02-16 21:10:00,13.7,10.8,30.12,North,32767,-999.0,0.0,88,0.00,,,0.00,Wunderground v.1.15,2013-02-17 02:10:00,
2013-02-16 21:15:00,13.6,10.7,30.12,North,32767,-999.0,0.0,88,0.00,,,0.00,Wunderground v.1.15,2013-02-17 02:15:00,
2013-02-16 21:20:00,13.4,10.5,30.13,North,32767,-999.0,0.0,88,0.00,,,0.00,Wunderground v.1.15,2013-02-17 02:20:00,
2013-02-16 21:30:00,13.2,10.3,30.13,North,32767,-999.0,0.0,88,0.00,,,0.00,Wunderground v.1.15,2013-02-17 02:30:00,
2013-02-16 21:35:00,13.2,10.6,30.13,North,32767,-999.0,0.0,89,0.00,,,0.00,Wunderground v.1.15,2013-02-17 02:35:00,
2013-02-16 21:45:00,13.1,10.5,30.13,North,32767,-999.0,0.0,89,0.00,,,0.00,Wunderground v.1.15,2013-02-17 02:45:00,
2013-02-16 21:55:00,13.3,10.7,30.13,North,32767,-999.0,0.0,89,0.00,,,0.00,Wunderground v.1.15,2013-02-17 02:55:00,
2013-02-16 22:05:00,13.1,10.5,30.13,North,32767,-999.0,0.0,89,0.00,,,0.00,Wunderground v.1.15,2013-02-17 03:05:00,
2013-02-16 22:15:00,13.2,10.6,30.13,North,32767,-999.0,0.0,89,0.00,,,0.00,Wunderground v.1.15,2013-02-17 03:15:00,
2013-02-16 22:25:00,12.9,10.3,30.14,North,32767,-999.0,0.0,89,0.00,,,0.00,Wunderground v.1.15,2013-02-17 03:25:00,
2013-02-16 22:35:00,12.3,9.7,30.14,North,32767,-999.0,0.0,89,0.00,,,0.00,Wunderground v.1.15,2013-02-17 03:35:00,
2013-02-16 22:45:00,11.6,9.0,30.14,North,32767,-999.0,0.0,89,0.00,,,0.00,Wunderground v.1.15,2013-02-17 03:45:00,
2013-02-16 22:55:00,11.0,8.4,30.14,North,32767,-999.0,0.0,89,0.00,,,0.00,Wunderground v.1.15,2013-02-17 03:55:00,
2013-02-16 23:05:00,10.9,8.5,30.14,North,32767,-999.0,0.0,90,0.00,,,0.00,Wunderground v.1.15,2013-02-17 04:05:00,
2013-02-16 23:15:00,10.8,8.4,30.14,North,32767,-999.0,0.0,90,0.00,,,0.00,Wunderground v.1.15,2013-02-17 04:15:00,
2013-02-16 23:25:00,10.7,8.3,30.14,North,32767,-999.0,0.0,90,0.00,,,0.00,Wunderground v.1.15,2013-02-17 04:25:00,
2013-02-16 23:30:00,10.7,8.3,30.14,North,32767,-999.0,0.0,90,0.00,,,0.00,Wunderground v.1.15,2013-02-17 04:30:00,
2013-02-16 23:40:00,10.5,8.1,30.14,North,32767,-999.0,0.0,90,0.00,,,0.00,Wunderground v.1.15,2013-02-17 04:40:00,
2013-02-16 23:45:00,10.4,8.0,30.14,North,32767,-999.0,0.0,90,0.00,,,0.00,Wunderground v.1.15,2013-02-17 04:45:00,
2013-02-16 23:55:00,10.4,8.0,30.14,North,32767,-999.0,0.0,90,0.00,,,0.00,Wunderground v.1.15,2013-02-17 04:55:00,